createdAt,value
2023-03-26T00:01:26.372Z,7.20
2023-03-26T00:03:57.590Z,7.20
2023-03-26T00:06:26.667Z,7.20
2023-03-26T00:08:53.593Z,7.20
2023-03-26T00:11:27.321Z,7.20
2023-03-26T00:13:56.861Z,7.20
2023-03-26T00:16:26.350Z,7.20
2023-03-26T00:18:53.507Z,7.20
2023-03-26T00:21:27.532Z,7.20
2023-03-26T00:23:56.119Z,7.20
2023-03-26T00:26:23.998Z,7.20
2023-03-26T00:28:50.816Z,7.20
2023-03-26T00:31:17.945Z,7.20
2023-03-26T00:33:44.513Z,7.10
2023-03-26T00:36:17.488Z,7.20
2023-03-26T00:38:44.827Z,7.20
2023-03-26T00:41:17.805Z,7.10
2023-03-26T00:43:46.486Z,7.10
2023-03-26T00:46:13.109Z,7.10
2023-03-26T00:48:45.422Z,7.10
2023-03-26T00:51:15.448Z,7.10
2023-03-26T00:53:43.945Z,7.10
2023-03-26T00:56:10.568Z,7.10
2023-03-26T00:58:37.573Z,7.10
2023-03-26T01:01:10.876Z,7.10
2023-03-26T01:03:38.484Z,7.00
2023-03-26T01:06:08.168Z,7.10
2023-03-26T01:08:38.194Z,7.00
2023-03-26T01:11:14.017Z,7.00
2023-03-26T01:13:47.092Z,7.00
2023-03-26T01:16:29.545Z,7.00
2023-03-26T01:18:58.658Z,7.00
2023-03-26T01:21:30.019Z,7.00
2023-03-26T01:24:00.136Z,7.00
2023-03-26T01:26:46.468Z,7.00
2023-03-26T01:29:24.199Z,7.10
2023-03-26T01:32:06.267Z,6.90
2023-03-26T01:34:46.954Z,6.90
2023-03-26T01:37:20.807Z,6.90
2023-03-26T01:39:57.063Z,6.90
2023-03-26T01:42:36.054Z,6.90
2023-03-26T01:45:05.779Z,6.80
2023-03-26T01:47:33.083Z,6.80
2023-03-26T01:52:27.522Z,6.80
2023-03-26T01:54:56.114Z,6.80
2023-03-26T01:57:52.823Z,6.80
2023-03-26T02:00:29.990Z,6.70
2023-03-26T02:03:17.724Z,6.70
2023-03-26T02:06:02.899Z,6.70
2023-03-26T02:08:48.052Z,6.70
2023-03-26T02:11:16.494Z,6.70
2023-03-26T02:13:45.704Z,6.70
2023-03-26T02:16:16.395Z,6.70
2023-03-26T02:18:45.061Z,6.60
2023-03-26T02:21:20.199Z,6.60
2023-03-26T02:23:50.613Z,6.60
2023-03-26T02:26:20.131Z,6.60
2023-03-26T02:28:46.756Z,6.60
2023-03-26T02:31:13.860Z,6.60
2023-03-26T02:33:40.476Z,6.60
2023-03-26T02:36:08.774Z,6.60
2023-03-26T02:38:35.533Z,6.60
2023-03-26T02:41:03.003Z,6.50
2023-03-26T02:43:29.755Z,6.50
2023-03-26T02:45:57.229Z,6.50
2023-03-26T02:48:24.078Z,6.50
2023-03-26T02:50:54.070Z,6.50
2023-03-26T02:53:21.720Z,6.50
2023-03-26T02:55:48.470Z,6.40
2023-03-26T02:58:17.709Z,6.40
2023-03-26T03:00:46.722Z,6.40
2023-03-26T03:03:14.314Z,6.40
2023-03-26T03:05:43.153Z,6.40
2023-03-26T03:08:10.241Z,6.40
2023-03-26T03:10:37.761Z,6.40
2023-03-26T03:13:07.654Z,6.40
2023-03-26T03:15:34.825Z,6.40
2023-03-26T03:18:01.801Z,6.40
2023-03-26T03:20:30.169Z,6.40
2023-03-26T03:22:56.709Z,6.40
2023-03-26T03:25:23.348Z,6.30
2023-03-26T03:27:50.173Z,6.30
2023-03-26T03:30:16.954Z,6.30
2023-03-26T03:32:43.523Z,6.30
2023-03-26T03:35:10.072Z,6.30
2023-03-26T03:37:36.589Z,6.30
2023-03-26T03:40:05.329Z,6.30
2023-03-26T03:42:31.856Z,6.30
2023-03-26T03:44:58.382Z,6.30
2023-03-26T03:47:24.924Z,6.30
2023-03-26T03:49:51.795Z,6.30
2023-03-26T03:52:18.348Z,6.20
2023-03-26T03:54:45.317Z,6.30
2023-03-26T03:57:11.855Z,6.20
2023-03-26T03:59:38.432Z,6.30
2023-03-26T04:02:14.606Z,6.20
2023-03-26T04:04:41.377Z,6.20
2023-03-26T04:07:07.867Z,6.20
2023-03-26T04:09:34.353Z,6.20
2023-03-26T04:12:00.859Z,6.10
2023-03-26T04:14:27.400Z,6.10
2023-03-26T04:16:54.852Z,6.20
2023-03-26T04:19:23.966Z,6.10
2023-03-26T04:21:50.546Z,6.10
2023-03-26T04:24:17.044Z,6.10
2023-03-26T04:26:43.739Z,6.10
2023-03-26T04:29:16.776Z,6.00
2023-03-26T04:31:43.847Z,6.00
2023-03-26T04:34:23.821Z,6.00
2023-03-26T04:36:54.256Z,6.00
2023-03-26T04:39:29.208Z,5.90
2023-03-26T04:41:57.725Z,5.90
2023-03-26T04:44:24.472Z,5.90
2023-03-26T04:46:52.821Z,5.90
2023-03-26T04:49:21.014Z,5.80
2023-03-26T04:51:47.910Z,5.80
2023-03-26T04:54:20.010Z,5.80
2023-03-26T04:56:52.348Z,5.70
2023-03-26T04:59:30.286Z,5.80
2023-03-26T05:01:59.002Z,5.70
2023-03-26T05:04:26.679Z,5.70
2023-03-26T05:06:53.959Z,5.70
2023-03-26T05:09:20.554Z,5.60
2023-03-26T05:11:48.127Z,5.60
2023-03-26T05:14:14.691Z,5.60
2023-03-26T05:16:41.598Z,5.60
2023-03-26T05:19:08.887Z,5.50
2023-03-26T05:21:35.696Z,5.50
2023-03-26T05:24:02.762Z,5.60
2023-03-26T05:26:29.440Z,5.60
2023-03-26T05:28:56.828Z,5.50
2023-03-26T05:31:23.832Z,5.50
2023-03-26T11:50:09.591Z,7.90
2023-03-26T12:08:01.028Z,8.30
2023-03-26T12:13:01.514Z,8.40
2023-03-26T12:15:30.698Z,8.50
2023-03-26T12:20:25.744Z,8.40
2023-03-26T12:25:30.518Z,8.40
2023-03-26T12:28:14.218Z,8.40
2023-03-26T12:33:30.181Z,8.40
2023-03-26T12:43:51.576Z,8.50
2023-03-26T12:44:53.521Z,8.50
2023-03-26T12:47:59.167Z,8.50
2023-03-26T12:52:53.872Z,8.50
2023-03-26T12:55:36.626Z,8.60
2023-03-26T13:00:48.190Z,8.60
2023-03-26T13:03:37.751Z,8.50
2023-03-26T13:14:35.387Z,8.60
2023-03-26T13:32:42.503Z,8.70
2023-03-26T13:43:28.796Z,8.70
2023-03-26T13:51:51.808Z,8.70
2023-03-26T13:54:27.344Z,8.80
2023-03-26T14:02:11.477Z,8.70
2023-03-26T14:10:16.854Z,8.60
2023-03-26T14:21:01.786Z,8.50
2023-03-26T14:26:33.951Z,8.50
2023-03-26T14:32:24.495Z,8.40
2023-03-26T14:35:26.148Z,8.50
2023-03-26T14:38:32.957Z,8.50
2023-03-26T14:41:21.245Z,8.50
2023-03-26T14:44:25.552Z,8.50
2023-03-26T14:47:08.529Z,8.50
2023-03-26T14:50:06.428Z,8.40
2023-03-26T14:52:42.172Z,8.40
2023-03-26T14:55:35.251Z,8.40
2023-03-26T14:58:21.977Z,8.40
2023-03-26T15:04:11.606Z,8.30
2023-03-26T15:09:41.347Z,8.30
2023-03-26T15:12:33.186Z,8.40
2023-03-26T15:18:21.902Z,8.30
2023-03-26T15:26:23.371Z,8.30
2023-03-26T15:29:15.347Z,8.30
2023-03-26T15:32:25.831Z,8.30
2023-03-26T15:35:36.579Z,8.40
2023-03-26T15:38:33.568Z,8.30
2023-03-26T15:47:22.672Z,8.10
2023-03-26T15:52:40.411Z,8.10
2023-03-26T15:55:21.299Z,8.10
2023-03-26T15:58:17.818Z,8.20
2023-03-26T16:01:02.885Z,8.10
2023-03-26T16:03:41.167Z,8.10
2023-03-26T16:11:44.368Z,7.90
2023-03-26T16:16:53.373Z,7.80
2023-03-26T16:21:55.092Z,7.80
2023-03-26T16:29:30.534Z,7.80
2023-03-26T16:32:11.196Z,7.90
2023-03-26T16:34:51.063Z,7.80
2023-03-26T16:37:36.044Z,7.80
2023-03-26T16:40:18.270Z,7.70
2023-03-26T16:43:12.240Z,7.70
2023-03-26T16:49:04.810Z,7.60
2023-03-26T16:52:13.343Z,7.70
2023-03-26T17:00:07.091Z,7.40
2023-03-26T17:02:43.510Z,7.60
2023-03-26T17:05:21.821Z,7.50
2023-03-26T17:08:14.580Z,7.50
2023-03-26T17:11:03.628Z,7.50
2023-03-26T17:16:22.514Z,7.30
2023-03-26T17:19:20.823Z,7.30
2023-03-26T17:24:47.779Z,7.20
2023-03-26T17:27:28.133Z,7.20
2023-03-26T17:30:03.769Z,7.20
2023-03-26T17:35:16.297Z,7.00
2023-03-26T17:37:45.738Z,7.10
2023-03-26T17:40:46.936Z,7.00
2023-03-26T17:43:36.169Z,6.90
2023-03-26T17:46:12.053Z,6.90
2023-03-26T17:48:45.607Z,7.00
2023-03-26T17:51:40.242Z,6.90
